Time;durP1;ratioP1;P1;durP2;ratioP2;P2;SDS_P1;SDS_P2;PMS_P1;PMS_P2;Temp;Humidity;BMP_temperature;BMP_pressure;BME280_temperature;BME280_humidity;BME280_pressure;Samples;Min_cycle;Max_cycle;Signal;HPM_P1;HPM_P2
2023/12/15 00:00:58;;;;;;;53.17;22.50;;;6.80;99.90;;;;;;5030901;28;20374;-51
2023/12/15 00:03:24;;;;;;;57.25;21.33;;;7.50;99.90;;;;;;5030953;28;20049;-48
2023/12/15 00:05:50;;;;;;;57.80;22.13;;;6.70;99.90;;;;;;5030502;28;20029;-50
2023/12/15 00:08:15;;;;;;;61.85;23.75;;;6.70;99.90;;;;;;5030082;28;20045;-50
2023/12/15 00:10:41;;;;;;;62.38;24.48;;;7.30;99.90;;;;;;5030916;28;20160;-50
2023/12/15 00:13:07;;;;;;;57.20;25.42;;;7.20;99.90;;;;;;5029025;28;20037;-47
2023/12/15 00:15:32;;;;;;;66.40;25.60;;;6.70;99.90;;;;;;5030892;28;20438;-52
2023/12/15 00:17:59;;;;;;;71.38;27.05;;;6.60;99.90;;;;;;5030846;28;20385;-52
2023/12/15 00:20:24;;;;;;;60.22;25.50;;;6.60;99.90;;;;;;5030168;28;20053;-51
2023/12/15 00:22:50;;;;;;;71.97;27.30;;;7.50;99.90;;;;;;5030977;28;20041;-51
2023/12/15 00:25:16;;;;;;;61.72;25.00;;;6.80;99.90;;;;;;5029007;28;20045;-50
2023/12/15 00:27:41;;;;;;;65.88;26.73;;;6.70;99.90;;;;;;5028654;28;20038;-48
2023/12/15 00:30:07;;;;;;;69.28;26.95;;;7.40;99.90;;;;;;5030322;28;20061;-50
2023/12/15 00:32:33;;;;;;;65.50;28.95;;;7.00;99.90;;;;;;5030013;28;20044;-52
2023/12/15 00:34:58;;;;;;;72.18;28.77;;;6.90;99.90;;;;;;5030758;28;20045;-49
2023/12/15 00:37:24;;;;;;;77.03;31.13;;;6.80;99.90;;;;;;5030527;28;20037;-48
2023/12/15 00:39:50;;;;;;;79.82;30.45;;;7.50;99.90;;;;;;5030139;28;20041;-52
2023/12/15 00:42:15;;;;;;;87.07;31.17;;;6.80;99.90;;;;;;5030595;28;20060;-51
2023/12/15 00:44:41;;;;;;;80.28;31.08;;;7.30;99.90;;;;;;5030648;28;20109;-47
2023/12/15 00:47:07;;;;;;;80.65;31.80;;;7.80;99.90;;;;;;5030589;28;20437;-49
2023/12/15 00:49:32;;;;;;;78.53;30.00;;;7.70;99.90;;;;;;5030705;28;20128;-50
2023/12/15 00:51:58;;;;;;;80.53;32.17;;;7.50;99.90;;;;;;5028256;28;20508;-50
2023/12/15 00:54:24;;;;;;;82.18;31.27;;;7.80;99.90;;;;;;5029897;28;20405;-50
2023/12/15 00:56:50;;;;;;;74.88;31.27;;;7.00;99.90;;;;;;5029231;28;20037;-49
2023/12/15 00:59:16;;;;;;;78.20;31.73;;;7.80;99.90;;;;;;5030594;28;20116;-50
2023/12/15 01:01:42;;;;;;;81.80;30.30;;;7.50;99.90;;;;;;5030329;28;20052;-49
2023/12/15 01:04:07;;;;;;;77.97;30.48;;;7.70;99.90;;;;;;5030423;28;20034;-47
2023/12/15 01:06:33;;;;;;;80.90;31.52;;;6.90;99.90;;;;;;5030460;28;20385;-49
2023/12/15 01:08:58;;;;;;;70.63;30.77;;;7.60;99.90;;;;;;5029236;28;20148;-49
2023/12/15 01:11:24;;;;;;;81.88;31.27;;;7.80;99.90;;;;;;5029934;28;20085;-50
2023/12/15 01:13:50;;;;;;;82.85;31.80;;;7.80;99.90;;;;;;5029938;28;20049;-50
2023/12/15 01:16:15;;;;;;;74.50;31.05;;;7.60;99.90;;;;;;5030653;28;20362;-49
2023/12/15 01:18:41;;;;;;;80.93;31.13;;;7.20;99.90;;;;;;5033918;28;20091;-52
2023/12/15 01:21:07;;;;;;;78.55;29.02;;;7.10;99.90;;;;;;5033455;28;20042;-51
2023/12/15 01:23:35;;;;;;;83.00;31.23;;;7.40;99.90;;;;;;5032317;28;20029;-50
2023/12/15 01:26:02;;;;;;;80.07;29.30;;;7.60;99.90;;;;;;5032844;28;20045;-50
2023/12/15 01:28:28;;;;;;;82.38;30.58;;;7.00;99.90;;;;;;5033776;28;20033;-52
2023/12/15 01:30:53;;;;;;;83.47;30.63;;;7.90;99.90;;;;;;5031962;28;20036;-51
2023/12/15 01:33:19;;;;;;;71.93;31.67;;;7.80;99.90;;;;;;5033106;28;20045;-48
2023/12/15 01:35:45;;;;;;;72.80;30.88;;;7.90;99.90;;;;;;5031719;28;20044;-52
2023/12/15 01:38:11;;;;;;;72.32;29.35;;;7.80;99.90;;;;;;5025053;28;20122;-50
2023/12/15 01:40:36;;;;;;;75.30;30.55;;;7.80;99.90;;;;;;5031058;28;20139;-52
2023/12/15 01:43:02;;;;;;;86.47;30.30;;;7.10;99.90;;;;;;5030873;28;20179;-48
2023/12/15 01:45:28;;;;;;;86.32;30.77;;;7.80;99.90;;;;;;5032290;28;20029;-51
2023/12/15 01:47:54;;;;;;;77.00;29.27;;;7.20;99.90;;;;;;5033163;28;20052;-50
2023/12/15 01:50:20;;;;;;;85.80;30.98;;;7.00;99.90;;;;;;5033610;28;20506;-48
2023/12/15 01:52:46;;;;;;;77.68;29.60;;;7.40;99.90;;;;;;5033280;28;20328;-51
2023/12/15 01:55:12;;;;;;;83.55;30.98;;;7.10;99.90;;;;;;5031536;28;20029;-50
2023/12/15 01:57:38;;;;;;;73.85;30.95;;;7.20;99.90;;;;;;5033096;28;20048;-51
2023/12/15 02:00:06;;;;;;;85.22;28.92;;;7.00;99.90;;;;;;5033049;28;20037;-49
2023/12/15 02:02:35;;;;;;;78.15;31.30;;;7.40;99.90;;;;;;5031639;28;20041;-52
2023/12/15 02:05:02;;;;;;;75.65;28.23;;;7.00;99.90;;;;;;5031566;28;20475;-48
2023/12/15 02:07:28;;;;;;;73.88;28.65;;;7.80;99.90;;;;;;5031003;28;20095;-48
2023/12/15 02:09:54;;;;;;;79.70;29.38;;;7.80;99.90;;;;;;5031717;28;20545;-50
2023/12/15 02:12:20;;;;;;;81.18;29.73;;;7.00;99.90;;;;;;5030603;28;20056;-51
2023/12/15 02:14:46;;;;;;;91.70;31.27;;;7.60;99.90;;;;;;5032412;28;20176;-52
2023/12/15 02:17:12;;;;;;;81.68;30.45;;;7.70;99.90;;;;;;5031098;28;20045;-50
2023/12/15 02:19:38;;;;;;;82.38;29.63;;;7.60;99.90;;;;;;5032539;28;20030;-51
2023/12/15 02:22:04;;;;;;;92.57;30.13;;;7.80;99.90;;;;;;5032311;28;20067;-50
2023/12/15 02:24:30;;;;;;;84.43;29.67;;;7.50;99.90;;;;;;5032035;28;20044;-50
2023/12/15 02:26:56;;;;;;;93.90;30.95;;;7.70;99.90;;;;;;5030614;28;20040;-49
2023/12/15 02:29:23;;;;;;;102.03;29.67;;;7.00;99.90;;;;;;5032308;28;20084;-48
2023/12/15 02:31:48;;;;;;;100.88;30.00;;;7.10;99.90;;;;;;5031320;28;20496;-48
2023/12/15 02:34:15;;;;;;;99.35;29.80;;;8.10;99.90;;;;;;5032356;28;20037;-52
2023/12/15 02:36:40;;;;;;;99.07;28.67;;;7.10;99.90;;;;;;5031014;28;20037;-51
2023/12/15 02:39:06;;;;;;;97.93;29.83;;;7.10;99.90;;;;;;5032466;28;20045;-51
2023/12/15 02:41:32;;;;;;;96.63;31.83;;;7.00;99.90;;;;;;5031842;28;20045;-53
2023/12/15 02:43:58;;;;;;;102.60;31.00;;;7.50;99.90;;;;;;5032256;28;20068;-47
2023/12/15 02:46:24;;;;;;;103.28;31.95;;;7.10;99.90;;;;;;5032156;28;20033;-51
2023/12/15 02:48:51;;;;;;;100.97;31.67;;;7.30;99.90;;;;;;5031435;28;20052;-51
2023/12/15 02:51:27;;;;;;;112.47;31.52;;;7.80;99.90;;;;;;5030495;28;20465;-49
2023/12/15 02:53:53;;;;;;;99.72;29.42;;;7.80;99.90;;;;;;5029999;28;20069;-52
2023/12/15 02:56:18;;;;;;;98.95;29.50;;;7.80;99.90;;;;;;5029920;28;20127;-50
2023/12/15 02:58:44;;;;;;;119.47;30.38;;;7.20;99.90;;;;;;5030158;28;20060;-49
2023/12/15 03:01:10;;;;;;;96.85;31.45;;;7.10;99.90;;;;;;5031478;28;20087;-49
2023/12/15 03:03:36;;;;;;;104.10;31.50;;;7.90;99.90;;;;;;5031821;28;20111;-50
2023/12/15 03:06:02;;;;;;;100.80;30.60;;;7.70;99.90;;;;;;5031950;28;20790;-49
2023/12/15 03:08:28;;;;;;;112.75;30.77;;;7.70;99.90;;;;;;5031892;28;20041;-49
2023/12/15 03:10:57;;;;;;;95.90;28.90;;;7.10;99.90;;;;;;5031306;28;20037;-47
2023/12/15 03:13:28;;;;;;;106.13;29.75;;;7.80;99.90;;;;;;5031309;28;20393;-48
2023/12/15 03:15:57;;;;;;;110.63;30.83;;;7.00;99.90;;;;;;5031666;28;20527;-52
2023/12/15 03:18:22;;;;;;;109.72;31.30;;;7.50;99.90;;;;;;5030341;28;20477;-50
2023/12/15 03:20:48;;;;;;;99.57;29.70;;;6.90;99.90;;;;;;5031226;28;20124;-49
2023/12/15 03:23:14;;;;;;;114.82;31.58;;;7.60;99.90;;;;;;5031643;28;20080;-47
2023/12/15 03:25:39;;;;;;;107.95;29.75;;;6.80;99.90;;;;;;5029195;28;20458;-51
2023/12/15 03:28:05;;;;;;;104.75;29.13;;;7.60;99.90;;;;;;5031452;28;20442;-49
2023/12/15 03:30:30;;;;;;;108.15;31.00;;;6.90;99.90;;;;;;5030773;28;20582;-52
2023/12/15 03:32:56;;;;;;;111.90;30.40;;;7.70;99.90;;;;;;5031408;28;20128;-49
2023/12/15 03:35:22;;;;;;;106.35;31.02;;;7.70;99.90;;;;;;5031482;28;20073;-50
2023/12/15 03:37:48;;;;;;;104.70;29.90;;;7.00;99.90;;;;;;5030858;28;20041;-48
2023/12/15 03:40:14;;;;;;;108.75;30.05;;;7.30;99.90;;;;;;5028737;28;20584;-50
2023/12/15 03:42:39;;;;;;;122.63;32.30;;;7.10;99.90;;;;;;5029630;28;20096;-49
2023/12/15 03:45:06;;;;;;;116.20;30.48;;;6.90;99.90;;;;;;5030402;28;20804;-50
2023/12/15 03:47:31;;;;;;;130.52;28.77;;;7.60;99.90;;;;;;5030614;28;20037;-51
2023/12/15 03:49:57;;;;;;;127.13;30.45;;;7.60;99.90;;;;;;5029166;28;20042;-48
2023/12/15 03:52:23;;;;;;;132.18;31.70;;;7.60;99.90;;;;;;5029493;28;20041;-48
2023/12/15 03:54:49;;;;;;;103.13;29.48;;;6.70;99.90;;;;;;5030738;28;20087;-52
2023/12/15 03:57:15;;;;;;;129.65;31.67;;;7.10;99.90;;;;;;5031051;28;20110;-51
2023/12/15 03:59:40;;;;;;;119.13;31.98;;;7.00;99.90;;;;;;5030952;28;20033;-48
2023/12/15 04:02:11;;;;;;;115.50;31.20;;;6.90;99.90;;;;;;5030683;28;20472;-52
2023/12/15 04:04:37;;;;;;;113.20;32.17;;;7.50;99.90;;;;;;5029793;28;20034;-50
2023/12/15 04:07:03;;;;;;;121.40;29.75;;;6.70;99.90;;;;;;5030492;28;20072;-50
2023/12/15 04:09:29;;;;;;;123.03;31.70;;;7.60;99.90;;;;;;5030595;28;20980;-49
2023/12/15 04:11:54;;;;;;;113.75;30.45;;;6.90;99.90;;;;;;5030384;28;20091;-48
2023/12/15 04:14:20;;;;;;;126.28;32.40;;;7.40;99.90;;;;;;5029477;28;20046;-51
2023/12/15 04:16:46;;;;;;;133.55;32.97;;;7.50;99.90;;;;;;5030823;28;20037;-49
2023/12/15 04:19:11;;;;;;;141.02;31.70;;;6.80;99.90;;;;;;5030770;28;20044;-50
2023/12/15 04:21:37;;;;;;;136.45;32.65;;;6.70;99.90;;;;;;5030903;28;20502;-52
2023/12/15 04:24:03;;;;;;;119.82;30.55;;;6.70;99.90;;;;;;5030239;28;20038;-51
2023/12/15 04:26:29;;;;;;;138.23;32.38;;;7.40;99.90;;;;;;5030678;28;20033;-50
2023/12/15 04:28:54;;;;;;;114.60;30.33;;;7.40;99.90;;;;;;5029098;28;20049;-50
2023/12/15 04:31:20;;;;;;;133.48;30.58;;;6.50;99.90;;;;;;5030696;28;20091;-49
2023/12/15 04:33:46;;;;;;;142.40;31.30;;;7.60;99.90;;;;;;5030639;28;20044;-50
2023/12/15 04:36:11;;;;;;;117.68;30.40;;;6.50;99.90;;;;;;5030252;28;20044;-52
2023/12/15 04:38:37;;;;;;;114.25;29.42;;;7.30;99.90;;;;;;5029823;28;20157;-50
2023/12/15 04:41:03;;;;;;;123.75;29.13;;;7.00;99.90;;;;;;5029795;28;20061;-48
2023/12/15 04:43:29;;;;;;;100.65;29.00;;;7.30;99.90;;;;;;5030457;28;20050;-48
2023/12/15 04:45:58;;;;;;;125.72;29.48;;;7.20;99.90;;;;;;5030385;28;20448;-49
2023/12/15 04:48:24;;;;;;;125.28;28.10;;;6.70;99.90;;;;;;5029956;28;20053;-51
2023/12/15 04:50:49;;;;;;;120.95;27.73;;;6.50;99.90;;;;;;5031821;28;20033;-49
2023/12/15 04:53:15;;;;;;;124.75;27.23;;;7.10;99.90;;;;;;5033055;28;20045;-51
2023/12/15 04:55:41;;;;;;;120.38;29.02;;;6.10;99.90;;;;;;5034131;28;20084;-48
2023/12/15 04:58:07;;;;;;;122.40;28.70;;;6.50;99.90;;;;;;5033859;28;20484;-50
2023/12/15 05:00:32;;;;;;;106.07;27.48;;;6.00;99.90;;;;;;5033809;28;20111;-49
2023/12/15 05:02:58;;;;;;;113.50;27.90;;;6.00;99.90;;;;;;5033744;28;20047;-50
2023/12/15 05:05:23;;;;;;;123.95;28.80;;;6.70;99.90;;;;;;5034211;28;20088;-48
2023/12/15 05:07:49;;;;;;;107.93;28.88;;;6.40;99.90;;;;;;5033951;28;20508;-47
2023/12/15 05:10:15;;;;;;;106.82;27.45;;;5.90;99.90;;;;;;5033856;28;20091;-51
2023/12/15 05:12:40;;;;;;;116.43;26.70;;;6.90;99.90;;;;;;5032733;28;20444;-52
2023/12/15 05:15:07;;;;;;;116.38;27.83;;;6.10;99.90;;;;;;5034010;28;20132;-52
2023/12/15 05:17:32;;;;;;;120.00;27.65;;;6.00;99.90;;;;;;5032656;28;20491;-51
2023/12/15 05:19:58;;;;;;;107.85;28.40;;;6.00;99.90;;;;;;5030861;28;20033;-49
2023/12/15 05:22:24;;;;;;;135.25;27.50;;;6.60;99.90;;;;;;5032122;28;20321;-49
2023/12/15 05:24:53;;;;;;;114.57;26.23;;;7.00;99.90;;;;;;5033382;28;20034;-51
2023/12/15 05:27:19;;;;;;;129.25;27.63;;;5.90;99.90;;;;;;5033706;28;20041;-51
2023/12/15 05:29:47;;;;;;;129.20;29.65;;;6.10;99.90;;;;;;5033310;28;20146;-50
2023/12/15 05:32:13;;;;;;;128.40;27.95;;;6.00;99.90;;;;;;5033672;28;20041;-50
2023/12/15 05:34:39;;;;;;;109.78;26.70;;;6.10;99.90;;;;;;5033465;28;20076;-50
2023/12/15 05:37:05;;;;;;;108.10;27.23;;;6.70;99.90;;;;;;5032449;28;20566;-50
2023/12/15 05:39:30;;;;;;;108.75;26.48;;;6.70;99.90;;;;;;5031529;28;20095;-50
2023/12/15 05:41:56;;;;;;;121.68;27.35;;;6.70;99.90;;;;;;5032842;28;20516;-50
2023/12/15 05:44:22;;;;;;;128.18;25.35;;;6.00;99.90;;;;;;5031999;28;20025;-50
2023/12/15 05:46:48;;;;;;;113.72;26.08;;;6.40;99.90;;;;;;5033485;28;20029;-52
2023/12/15 05:49:14;;;;;;;107.57;25.80;;;5.70;99.90;;;;;;5033232;28;20501;-49
2023/12/15 05:51:45;;;;;;;112.75;26.17;;;6.00;99.90;;;;;;5032861;28;20092;-49
2023/12/15 05:54:11;;;;;;;107.10;24.88;;;5.70;99.90;;;;;;5032653;28;20037;-52
2023/12/15 05:56:36;;;;;;;130.38;29.17;;;6.70;99.90;;;;;;5032195;28;20042;-51
2023/12/15 05:59:02;;;;;;;118.05;27.55;;;6.30;99.90;;;;;;5030518;28;20041;-51
2023/12/15 06:01:28;;;;;;;116.03;27.25;;;6.40;99.90;;;;;;5032435;28;20051;-50
2023/12/15 06:03:53;;;;;;;120.90;27.83;;;6.70;99.90;;;;;;5031912;28;20080;-48
2023/12/15 06:06:19;;;;;;;131.30;27.42;;;6.30;99.90;;;;;;5032956;28;20204;-50
2023/12/15 06:08:45;;;;;;;148.20;27.65;;;5.70;99.90;;;;;;5032192;28;20037;-52
2023/12/15 06:11:11;;;;;;;136.75;26.55;;;5.80;99.90;;;;;;5032200;28;20029;-52
2023/12/15 06:13:39;;;;;;;151.65;28.35;;;5.80;99.90;;;;;;5032540;28;20477;-49
2023/12/15 06:16:05;;;;;;;138.02;26.98;;;6.20;99.90;;;;;;5032749;28;20037;-51
2023/12/15 06:18:31;;;;;;;264.48;28.83;;;6.60;99.90;;;;;;5032792;28;20048;-51
2023/12/15 06:20:56;;;;;;;427.92;33.67;;;6.30;99.90;;;;;;5030964;28;20374;-51
2023/12/15 06:23:22;;;;;;;546.28;34.95;;;5.90;99.90;;;;;;5032647;28;20052;-50
2023/12/15 06:25:48;;;;;;;457.38;32.17;;;5.80;99.90;;;;;;5031796;28;20038;-48
2023/12/15 06:28:13;;;;;;;418.42;31.00;;;6.40;99.90;;;;;;5032415;28;20042;-50
2023/12/15 06:30:39;;;;;;;263.80;25.17;;;5.40;99.90;;;;;;5032008;28;20087;-51
2023/12/15 06:33:08;;;;;;;404.20;29.20;;;5.60;99.90;;;;;;5031029;28;20080;-49
2023/12/15 06:35:33;;;;;;;292.92;23.95;;;5.90;99.90;;;;;;5031920;28;20128;-50
2023/12/15 06:38:00;;;;;;;216.13;21.50;;;5.50;99.90;;;;;;5031495;28;20199;-50
2023/12/15 06:40:25;;;;;;;302.00;23.63;;;6.20;99.90;;;;;;5031398;28;20053;-49
2023/12/15 06:42:51;;;;;;;154.02;18.90;;;5.30;99.90;;;;;;5031414;28;20064;-49
2023/12/15 06:45:17;;;;;;;230.60;22.10;;;5.20;99.90;;;;;;5031769;28;20163;-49
2023/12/15 06:47:43;;;;;;;264.88;21.13;;;5.50;99.90;;;;;;5031500;28;20086;-49
2023/12/15 06:50:08;;;;;;;312.10;24.58;;;6.10;99.90;;;;;;5028465;28;20034;-49
2023/12/15 06:52:35;;;;;;;172.75;18.58;;;5.20;99.90;;;;;;5031008;28;20456;-48
2023/12/15 06:55:02;;;;;;;304.88;23.02;;;6.00;99.90;;;;;;5030965;28;20049;-51
2023/12/15 06:57:28;;;;;;;270.52;20.65;;;5.90;99.90;;;;;;5013145;28;20126;-51
2023/12/15 06:59:54;;;;;;;273.33;22.92;;;6.10;99.90;;;;;;5029318;28;20124;-52
2023/12/15 07:02:19;;;;;;;233.02;21.65;;;5.60;99.90;;;;;;5030188;28;20045;-51
2023/12/15 07:04:45;;;;;;;261.25;22.88;;;6.10;99.90;;;;;;5030542;28;20041;-49
2023/12/15 07:07:11;;;;;;;203.55;19.75;;;6.10;99.90;;;;;;5030756;28;20127;-50
2023/12/15 07:09:37;;;;;;;227.02;20.25;;;5.00;99.90;;;;;;5029442;28;20033;-52
2023/12/15 07:12:03;;;;;;;166.93;17.58;;;5.20;99.90;;;;;;5031337;28;20041;-51
2023/12/15 07:14:29;;;;;;;95.80;17.65;;;5.00;99.90;;;;;;5030933;28;20503;-52
2023/12/15 07:16:55;;;;;;;126.68;43.08;;;5.00;99.90;;;;;;5031101;28;20048;-49
2023/12/15 07:19:20;;;;;;;90.63;17.90;;;5.10;99.90;;;;;;5029897;28;20041;-49
2023/12/15 07:21:46;;;;;;;74.68;17.98;;;5.30;99.90;;;;;;5029599;28;20041;-49
2023/12/15 07:24:12;;;;;;;110.40;21.17;;;5.00;99.90;;;;;;5030528;28;20599;-50
2023/12/15 07:26:38;;;;;;;105.07;22.95;;;5.70;99.90;;;;;;5030262;28;20037;-50
2023/12/15 07:29:05;;;;;;;133.10;24.40;;;6.20;99.90;;;;;;5030514;28;20116;-50
2023/12/15 07:31:31;;;;;;;117.20;23.92;;;5.50;99.90;;;;;;5030922;28;20049;-47
2023/12/15 07:33:56;;;;;;;102.30;24.83;;;5.80;99.90;;;;;;5029421;28;20083;-50
2023/12/15 07:36:22;;;;;;;117.13;25.00;;;6.00;99.90;;;;;;5030346;28;20044;-49
2023/12/15 07:38:48;;;;;;;129.70;25.08;;;6.40;99.90;;;;;;5030722;28;20075;-50
2023/12/15 07:41:15;;;;;;;131.23;25.75;;;5.70;99.90;;;;;;5030643;28;20049;-49
2023/12/15 07:43:41;;;;;;;89.38;23.27;;;6.00;99.90;;;;;;5030399;28;20647;-50
2023/12/15 07:46:18;;;;;;;110.18;24.90;;;5.60;99.90;;;;;;5030710;28;20076;-52
2023/12/15 07:48:44;;;;;;;102.00;24.65;;;6.50;99.90;;;;;;5030422;28;20120;-49
2023/12/15 07:51:20;;;;;;;109.70;25.45;;;6.50;99.90;;;;;;5030273;28;20037;-51
2023/12/15 07:53:47;;;;;;;133.52;25.83;;;5.80;99.90;;;;;;5030801;28;20034;-50
2023/12/15 07:56:20;;;;;;;101.60;25.55;;;6.70;99.90;;;;;;5030488;28;20388;-49
2023/12/15 07:58:46;;;;;;;91.50;23.40;;;5.80;99.90;;;;;;5029439;28;20163;-49
2023/12/15 08:01:12;;;;;;;115.20;24.00;;;6.70;99.90;;;;;;5030882;28;20525;-47
2023/12/15 08:03:37;;;;;;;114.75;24.63;;;6.10;99.90;;;;;;5030933;28;20045;-47
2023/12/15 08:06:03;;;;;;;108.57;24.35;;;6.70;99.90;;;;;;5030980;28;20030;-50
2023/12/15 08:08:29;;;;;;;104.70;24.85;;;6.30;99.90;;;;;;5030804;28;20496;-51
2023/12/15 08:10:54;;;;;;;110.63;24.23;;;6.50;99.90;;;;;;5029082;28;20049;-49
2023/12/15 08:13:20;;;;;;;100.85;24.60;;;6.90;99.90;;;;;;5021620;28;20038;-48
2023/12/15 08:15:47;;;;;;;118.80;25.65;;;6.70;99.90;;;;;;5025905;28;20103;-51
2023/12/15 08:18:13;;;;;;;110.47;24.27;;;6.20;99.90;;;;;;5027998;28;20053;-49
2023/12/15 08:20:38;;;;;;;109.65;23.88;;;6.10;99.90;;;;;;5028087;28;20033;-48
2023/12/15 08:23:04;;;;;;;109.13;23.83;;;6.70;99.90;;;;;;5029637;28;20041;-50
2023/12/15 08:25:30;;;;;;;102.88;22.65;;;6.60;99.90;;;;;;5021650;28;20049;-49
2023/12/15 08:27:55;;;;;;;94.13;21.88;;;6.40;99.90;;;;;;5026553;28;20456;-48
2023/12/15 08:30:21;;;;;;;83.82;20.48;;;6.10;99.90;;;;;;5025975;28;20025;-47
2023/12/15 08:32:46;;;;;;;89.80;21.08;;;6.80;99.90;;;;;;5026159;28;20356;-48
2023/12/15 08:35:12;;;;;;;84.72;18.52;;;6.40;99.90;;;;;;5026065;28;20044;-50
2023/12/15 08:37:38;;;;;;;86.28;20.58;;;7.20;99.90;;;;;;5026764;28;20409;-49
2023/12/15 08:40:04;;;;;;;108.50;22.20;;;7.10;99.90;;;;;;5024969;28;20085;-49
2023/12/15 08:42:30;;;;;;;87.15;19.85;;;6.30;99.90;;;;;;5026686;28;20083;-51
2023/12/15 08:44:55;;;;;;;82.55;18.92;;;6.50;99.90;;;;;;5025535;28;20442;-46
2023/12/15 08:47:21;;;;;;;85.40;19.90;;;6.30;99.90;;;;;;5026063;28;20033;-50
2023/12/15 08:49:47;;;;;;;81.63;20.48;;;6.90;99.90;;;;;;5026293;28;20038;-49
2023/12/15 08:52:13;;;;;;;90.97;22.52;;;6.70;99.90;;;;;;5025823;28;20481;-49
2023/12/15 08:54:39;;;;;;;92.82;20.58;;;6.40;99.90;;;;;;5025141;28;20037;-47
2023/12/15 08:57:05;;;;;;;93.68;23.35;;;7.30;99.90;;;;;;5024963;28;20100;-51
2023/12/15 08:59:30;;;;;;;79.95;21.40;;;7.00;99.90;;;;;;5022358;28;20049;-52
2023/12/15 09:01:56;;;;;;;59.95;18.88;;;6.50;99.90;;;;;;5024191;28;20595;-50
2023/12/15 09:04:22;;;;;;;66.63;19.00;;;6.90;99.90;;;;;;5026362;28;20060;-51
2023/12/15 09:06:48;;;;;;;67.05;17.08;;;6.70;99.90;;;;;;5024626;28;20458;-47
2023/12/15 09:09:14;;;;;;;79.63;18.42;;;7.00;99.90;;;;;;5024469;28;20088;-49
2023/12/15 09:11:39;;;;;;;72.05;18.80;;;7.60;99.90;;;;;;5025464;28;20076;-50
2023/12/15 09:14:05;;;;;;;78.05;19.48;;;7.50;99.90;;;;;;5026001;28;20056;-48
2023/12/15 09:16:31;;;;;;;83.10;17.42;;;6.90;99.90;;;;;;5025079;28;20041;-51
2023/12/15 09:18:57;;;;;;;74.10;17.98;;;7.60;99.90;;;;;;5026238;28;20053;-50
2023/12/15 09:21:23;;;;;;;65.82;16.73;;;7.80;99.90;;;;;;5025022;28;20045;-50
2023/12/15 09:23:49;;;;;;;65.28;17.40;;;7.70;99.90;;;;;;5023743;28;20520;-47
2023/12/15 09:26:14;;;;;;;68.60;15.63;;;7.40;99.90;;;;;;5022101;28;20042;-50
2023/12/15 09:28:40;;;;;;;69.55;16.10;;;7.80;99.90;;;;;;5023813;28;20132;-50
2023/12/15 09:31:05;;;;;;;63.97;16.17;;;9.10;99.90;;;;;;5023251;28;20026;-51
2023/12/15 09:33:31;;;;;;;68.43;16.33;;;7.50;99.90;;;;;;5025046;28;20037;-49
2023/12/15 09:35:57;;;;;;;64.85;16.35;;;8.10;99.90;;;;;;5023718;28;20608;-48
2023/12/15 09:38:23;;;;;;;68.50;16.40;;;7.60;99.90;;;;;;5021076;28;20044;-52
2023/12/15 09:40:48;;;;;;;64.95;14.80;;;7.70;99.90;;;;;;5014283;28;20111;-51
2023/12/15 09:43:14;;;;;;;68.15;15.05;;;7.70;99.90;;;;;;5020441;28;20523;-50
2023/12/15 09:45:40;;;;;;;61.95;14.55;;;8.10;99.90;;;;;;5023822;28;20037;-49
2023/12/15 09:48:07;;;;;;;56.67;15.38;;;8.40;99.90;;;;;;5021464;28;20424;-50
2023/12/15 09:50:34;;;;;;;61.33;15.02;;;7.90;99.90;;;;;;5023597;28;20044;-48
2023/12/15 09:53:03;;;;;;;65.65;15.43;;;8.40;99.90;;;;;;5024859;28;20029;-50
2023/12/15 09:55:30;;;;;;;66.03;13.88;;;8.40;99.90;;;;;;5022796;28;20029;-50
2023/12/15 09:58:00;;;;;;;48.00;13.98;;;8.20;99.90;;;;;;5024674;28;20045;-50
2023/12/15 10:00:26;;;;;;;48.58;12.38;;;8.50;99.90;;;;;;5025339;28;20104;-51
2023/12/15 10:02:51;;;;;;;61.53;14.20;;;8.60;99.90;;;;;;5024280;28;20128;-50
2023/12/15 10:05:18;;;;;;;50.42;13.25;;;8.60;99.90;;;;;;5025696;28;20465;-50
2023/12/15 10:07:44;;;;;;;58.63;13.80;;;8.70;99.90;;;;;;5024637;28;20449;-51
2023/12/15 10:10:11;;;;;;;61.97;12.85;;;8.50;99.90;;;;;;5022222;28;20120;-49
2023/12/15 10:12:37;;;;;;;62.33;13.57;;;8.80;99.90;;;;;;5006028;28;20063;-48
2023/12/15 10:15:02;;;;;;;42.28;11.27;;;8.90;99.90;;;;;;5023423;28;20146;-51
2023/12/15 10:17:28;;;;;;;42.78;11.13;;;9.00;99.90;;;;;;5011693;28;20374;-51
2023/12/15 10:20:12;;;;;;;50.50;11.45;;;8.90;99.90;;;;;;5020299;28;20056;-50
2023/12/15 10:22:39;;;;;;;45.00;11.63;;;9.00;99.90;;;;;;5022008;28;20115;-48
2023/12/15 10:25:25;;;;;;;50.33;11.30;;;8.80;99.90;;;;;;5017706;28;20038;-51
2023/12/15 10:27:51;;;;;;;54.92;11.30;;;9.00;99.90;;;;;;5020980;28;20049;-48
2023/12/15 10:30:17;;;;;;;52.63;10.57;;;8.60;99.90;;;;;;5023443;28;20021;-52
2023/12/15 10:32:46;;;;;;;54.17;11.07;;;8.60;99.90;;;;;;5024175;28;20151;-52
2023/12/15 10:35:13;;;;;;;56.75;10.45;;;8.60;99.90;;;;;;5021546;28;20041;-48
2023/12/15 10:37:41;;;;;;;42.03;9.57;;;9.10;99.90;;;;;;5023754;28;20045;-48
2023/12/15 10:40:07;;;;;;;54.10;10.15;;;9.10;99.90;;;;;;5023372;28;20041;-50
2023/12/15 10:42:34;;;;;;;58.47;9.93;;;8.70;99.90;;;;;;5024025;28;20045;-52
2023/12/15 10:45:04;;;;;;;46.30;9.40;;;9.20;99.90;;;;;;5023469;28;20028;-49
2023/12/15 10:47:32;;;;;;;41.90;9.50;;;8.70;99.90;;;;;;5024075;28;20053;-51
2023/12/15 10:49:58;;;;;;;41.15;9.30;;;8.80;99.90;;;;;;5024677;28;20496;-50
2023/12/15 10:52:24;;;;;;;46.00;8.02;;;8.70;99.90;;;;;;5024219;28;20116;-49
2023/12/15 10:54:51;;;;;;;47.70;9.02;;;8.90;99.90;;;;;;5022202;28;20056;-52
2023/12/15 10:57:19;;;;;;;53.03;9.15;;;8.90;99.90;;;;;;5023206;28;20147;-51
2023/12/15 10:59:47;;;;;;;50.33;8.93;;;8.80;99.90;;;;;;5023169;28;20034;-48
2023/12/15 11:02:16;;;;;;;39.33;7.50;;;9.20;99.90;;;;;;5022463;28;20038;-50
2023/12/15 11:04:42;;;;;;;49.08;8.05;;;9.10;99.90;;;;;;5023100;28;20063;-50
2023/12/15 11:07:09;;;;;;;43.50;8.98;;;9.40;99.90;;;;;;5021794;28;20064;-47
2023/12/15 11:09:36;;;;;;;44.80;8.27;;;8.90;99.90;;;;;;5020960;28;20534;-49
2023/12/15 11:12:28;;;;;;;44.22;7.47;;;9.00;99.90;;;;;;5013350;28;20100;-51
2023/12/15 11:15:00;;;;;;;44.85;8.63;;;9.20;99.90;;;;;;5020502;28;20037;-51
2023/12/15 11:17:29;;;;;;;44.55;7.70;;;9.30;99.90;;;;;;5020464;28;20098;-51
2023/12/15 11:20:19;;;;;;;42.53;7.18;;;9.60;99.90;;;;;;5015444;28;20038;-48
2023/12/15 11:22:56;;;;;;;39.35;7.05;;;9.60;99.90;;;;;;5021025;28;20076;-48
2023/12/15 11:25:29;;;;;;;38.03;6.63;;;9.10;99.90;;;;;;5020714;28;20033;-48
2023/12/15 11:28:08;;;;;;;43.50;6.60;;;9.10;99.90;;;;;;5022777;28;20477;-51
2023/12/15 11:30:44;;;;;;;48.60;7.85;;;9.50;99.90;;;;;;5021382;28;20049;-48
2023/12/15 11:33:31;;;;;;;37.05;6.60;;;9.40;99.90;;;;;;5019789;28;20041;-50
2023/12/15 11:36:06;;;;;;;40.00;6.15;;;9.40;99.90;;;;;;5022622;28;20444;-50
2023/12/15 11:38:32;;;;;;;35.15;6.32;;;9.60;99.90;;;;;;5022544;28;20056;-50
2023/12/15 11:40:59;;;;;;;35.72;6.70;;;9.60;99.90;;;;;;5015064;28;20057;-50
2023/12/15 11:43:28;;;;;;;38.80;7.45;;;9.80;99.90;;;;;;5017865;28;20053;-51
2023/12/15 11:45:54;;;;;;;37.60;6.50;;;9.70;99.90;;;;;;5021036;28;20045;-48
2023/12/15 11:48:22;;;;;;;41.63;6.25;;;9.80;99.90;;;;;;5021943;28;20433;-49
2023/12/15 11:50:48;;;;;;;34.90;6.43;;;9.90;99.90;;;;;;5020040;28;20087;-51
2023/12/15 11:53:14;;;;;;;41.35;7.13;;;9.40;99.90;;;;;;5017714;28;20034;-49
2023/12/15 11:55:41;;;;;;;30.42;5.72;;;10.00;99.90;;;;;;5021573;28;20041;-48
2023/12/15 11:58:07;;;;;;;33.05;6.15;;;9.90;99.90;;;;;;5024237;28;20041;-49
2023/12/15 12:00:33;;;;;;;27.40;5.72;;;9.60;99.90;;;;;;5024014;28;20041;-49
2023/12/15 12:02:59;;;;;;;45.38;6.85;;;10.30;99.90;;;;;;5025092;28;20037;-50
2023/12/15 12:05:28;;;;;;;44.45;6.70;;;10.40;99.90;;;;;;5020331;28;20072;-50
2023/12/15 12:07:53;;;;;;;32.10;5.90;;;9.90;99.90;;;;;;5017549;28;20029;-48
2023/12/15 12:10:19;;;;;;;35.30;6.05;;;10.20;99.90;;;;;;5021310;28;20037;-50
2023/12/15 12:12:45;;;;;;;37.22;7.30;;;10.40;99.90;;;;;;5028842;28;20132;-49
2023/12/15 12:15:10;;;;;;;37.03;6.18;;;10.80;99.90;;;;;;5028018;28;20037;-50
2023/12/15 12:17:39;;;;;;;36.17;6.88;;;10.80;99.90;;;;;;5024760;28;20183;-52
2023/12/15 12:20:11;;;;;;;25.75;5.10;;;10.30;99.90;;;;;;5027041;28;20084;-48
2023/12/15 12:22:41;;;;;;;32.95;6.00;;;10.20;99.90;;;;;;5027335;28;20598;-46
2023/12/15 12:25:09;;;;;;;23.48;5.22;;;10.30;99.90;;;;;;5025158;28;20409;-49
2023/12/15 12:27:36;;;;;;;34.80;6.25;;;10.00;99.90;;;;;;5025962;28;20048;-48
2023/12/15 12:30:02;;;;;;;30.60;5.53;;;10.50;99.90;;;;;;5027166;28;20091;-48